Time;durP1;ratioP1;P1;durP2;ratioP2;P2;SDS_P1;SDS_P2;PMS_P1;PMS_P2;Temp;Humidity;BMP_temperature;BMP_pressure;BME280_temperature;BME280_humidity;BME280_pressure;Samples;Min_cycle;Max_cycle;Signal;HPM_P1;HPM_P2
2022/05/07 00:01:46;;;;;;;6.33;2.95;;;;;;;11.57;34.38;100367.02;1735750;82;21520;-74
2022/05/07 00:04:14;;;;;;;7.60;3.37;;;;;;;11.56;34.47;100370.55;1735532;82;21058;-75
2022/05/07 00:06:41;;;;;;;9.03;3.00;;;;;;;11.56;34.51;100371.87;1735862;82;21041;-75
2022/05/07 00:09:09;;;;;;;6.97;3.20;;;;;;;11.52;34.71;100373.26;1736038;82;21109;-74
2022/05/07 00:11:35;;;;;;;11.20;3.10;;;;;;;11.50;34.67;100359.26;1735760;82;20998;-75
2022/05/07 00:14:01;;;;;;;5.62;2.90;;;;;;;11.49;34.75;100375.11;1735627;82;21002;-74
2022/05/07 00:19:13;;;;;;;5.95;3.15;;;;;;;11.44;34.88;100376.53;1735591;82;22336;-74
2022/05/07 00:21:40;;;;;;;9.38;3.35;;;;;;;11.40;34.97;100368.30;1735594;82;22764;-74
2022/05/07 00:24:07;;;;;;;12.20;3.72;;;;;;;11.38;35.13;100371.43;1735410;82;21639;-75
2022/05/07 00:26:35;;;;;;;8.58;3.20;;;;;;;11.35;35.10;100368.87;1735820;82;21072;-74
2022/05/07 00:29:01;;;;;;;7.62;3.55;;;;;;;11.34;35.25;100364.48;1735684;82;21139;-74
2022/05/07 00:31:27;;;;;;;4.78;2.87;;;;;;;11.31;35.31;100368.51;1735667;81;21081;-75
2022/05/07 00:33:55;;;;;;;4.75;3.22;;;;;;;11.29;35.35;100362.41;1735567;81;21138;-75
2022/05/07 00:36:21;;;;;;;5.33;3.12;;;;;;;11.27;35.45;100364.23;1735589;82;21065;-74
2022/05/07 00:38:48;;;;;;;7.45;3.42;;;;;;;11.25;35.53;100360.77;1735722;82;21053;-75
2022/05/07 00:41:14;;;;;;;13.20;4.00;;;;;;;11.24;35.57;100368.25;1733222;82;21129;-74
2022/05/07 00:43:41;;;;;;;9.63;3.27;;;;;;;11.21;35.71;100360.41;1732338;82;21037;-75
2022/05/07 00:46:08;;;;;;;10.40;3.65;;;;;;;11.20;35.93;100357.38;1732783;82;21100;-74
2022/05/07 00:48:35;;;;;;;7.00;3.33;;;;;;;11.17;35.77;100360.08;1733577;82;21046;-75
2022/05/07 00:53:47;;;;;;;5.92;3.02;;;;;;;11.14;35.89;100361.86;1743800;82;21047;-74
2022/05/07 00:56:16;;;;;;;5.67;3.80;;;;;;;11.10;36.10;100358.90;1719531;82;21154;-74
2022/05/07 00:58:42;;;;;;;6.20;3.70;;;;;;;11.09;36.27;100358.94;1743550;82;21950;-74
2022/05/07 01:01:09;;;;;;;6.28;3.37;;;;;;;11.06;36.41;100357.68;1743960;82;21091;-74
2022/05/07 01:03:37;;;;;;;9.98;3.25;;;;;;;11.03;36.36;100361.70;1743707;82;21094;-74
2022/05/07 01:06:04;;;;;;;5.58;3.20;;;;;;;11.01;36.44;100363.08;1718953;82;21000;-75
2022/05/07 01:08:32;;;;;;;5.28;3.52;;;;;;;10.97;36.51;100356.98;1743508;82;21550;-75
2022/05/07 01:11:00;;;;;;;5.03;3.10;;;;;;;10.96;36.60;100366.23;1743553;82;21074;-75
2022/05/07 01:13:27;;;;;;;5.10;3.30;;;;;;;10.95;36.71;100365.84;1743620;82;21091;-75
2022/05/07 01:15:56;;;;;;;7.85;3.62;;;;;;;10.93;36.81;100358.44;1743554;82;21051;-75
2022/05/07 01:18:24;;;;;;;4.10;3.42;;;;;;;10.90;36.84;100357.18;1743797;82;21008;-75
2022/05/07 01:20:50;;;;;;;9.28;4.47;;;;;;;10.88;37.01;100349.77;1743557;82;21075;-75
2022/05/07 01:23:17;;;;;;;11.33;5.03;;;;;;;10.86;37.02;100354.18;1743687;82;22265;-75
2022/05/07 01:25:44;;;;;;;9.80;4.10;;;;;;;10.84;37.07;100344.14;1743788;82;21017;-75
2022/05/07 01:28:11;;;;;;;14.30;5.33;;;;;;;10.82;37.23;100351.22;1743413;82;21075;-74
2022/05/07 01:30:38;;;;;;;11.73;6.10;;;;;;;10.81;37.30;100354.73;1743543;82;21075;-73
2022/05/07 01:33:05;;;;;;;18.73;6.35;;;;;;;10.78;37.27;100351.73;1744022;82;21452;-74
2022/05/07 01:35:32;;;;;;;8.70;5.30;;;;;;;10.76;37.42;100351.77;1743908;82;21852;-74
2022/05/07 01:37:59;;;;;;;12.25;4.80;;;;;;;10.75;37.31;100347.39;1743565;82;21008;-75
2022/05/07 01:40:28;;;;;;;9.63;4.17;;;;;;;10.75;37.49;100347.39;1746166;81;21474;-75
2022/05/07 01:42:54;;;;;;;8.13;3.87;;;;;;;10.73;37.49;100346.56;1752150;81;21095;-75
2022/05/07 01:45:22;;;;;;;8.03;3.55;;;;;;;10.72;37.58;100339.55;1752340;81;22261;-76
2022/05/07 01:50:41;;;;;;;8.05;3.40;;;;;;;10.69;37.70;100342.28;1739055;81;21975;-75
2022/05/07 01:53:12;;;;;;;7.05;3.62;;;;;;;10.68;37.81;100344.48;1735934;82;21062;-74
2022/05/07 01:55:39;;;;;;;6.28;4.17;;;;;;;10.66;37.73;100342.34;1735449;82;21057;-75
2022/05/07 01:58:06;;;;;;;7.55;3.77;;;;;;;10.65;37.83;100341.91;1735825;82;21128;-75
2022/05/07 02:00:34;;;;;;;9.75;3.70;;;;;;;10.63;37.87;100339.77;1735919;82;21466;-75
2022/05/07 02:03:02;;;;;;;7.47;3.90;;;;;;;10.60;38.06;100344.64;1735872;82;21560;-74
2022/05/07 02:05:29;;;;;;;7.60;3.90;;;;;;;10.58;38.11;100345.59;1706657;82;21623;-75
2022/05/07 02:07:57;;;;;;;6.78;3.45;;;;;;;10.56;38.06;100336.87;1735713;82;21041;-74
2022/05/07 02:10:24;;;;;;;10.00;4.05;;;;;;;10.55;38.10;100349.59;1735972;82;21065;-74
2022/05/07 02:12:51;;;;;;;8.10;3.50;;;;;;;10.54;38.17;100343.48;1735789;82;21226;-74
2022/05/07 02:15:21;;;;;;;7.17;3.95;;;;;;;10.51;38.29;100336.95;1735688;82;20998;-74
2022/05/07 02:17:49;;;;;;;14.90;4.78;;;;;;;10.49;38.26;100341.81;1735579;82;21045;-74
2022/05/07 02:20:15;;;;;;;20.97;5.60;;;;;;;10.47;38.41;100344.94;1735652;82;21089;-75
2022/05/07 02:22:44;;;;;;;9.88;5.33;;;;;;;10.44;38.60;100340.62;1735659;82;22114;-75
2022/05/07 02:25:11;;;;;;;13.25;6.33;;;;;;;10.41;38.50;100340.22;1735805;82;21135;-75
2022/05/07 02:27:38;;;;;;;13.45;5.97;;;;;;;10.39;38.66;100342.48;1736090;82;21053;-75
2022/05/07 02:30:07;;;;;;;14.78;7.05;;;;;;;10.36;38.70;100346.03;1706229;82;21045;-75
2022/05/07 02:32:34;;;;;;;16.97;6.15;;;;;;;10.33;38.75;100342.14;1735348;82;21079;-75
2022/05/07 02:35:01;;;;;;;13.15;6.00;;;;;;;10.31;38.84;100347.00;1756861;81;21093;-75
2022/05/07 02:37:30;;;;;;;11.12;5.70;;;;;;;10.28;39.33;100344.42;1756373;81;21920;-75
2022/05/07 02:39:57;;;;;;;14.83;5.22;;;;;;;10.20;39.18;100347.19;1725823;83;21538;-74
2022/05/07 02:42:36;;;;;;;12.05;5.10;;;;;;;10.17;39.49;100343.30;1756710;81;21521;-75
2022/05/07 02:45:09;;;;;;;8.53;5.05;;;;;;;10.16;39.44;100353.42;1756201;81;21014;-74
2022/05/07 02:47:40;;;;;;;12.75;5.12;;;;;;;10.13;39.45;100346.91;1725410;83;21012;-74
2022/05/07 02:50:09;;;;;;;9.10;5.10;;;;;;;10.11;39.48;100343.45;1721007;82;21151;-74
2022/05/07 02:52:36;;;;;;;17.15;5.37;;;;;;;10.08;39.77;100356.64;1754686;81;21613;-74
2022/05/07 02:55:07;;;;;;;9.20;5.25;;;;;;;10.06;39.82;100357.12;1754626;81;21120;-74
2022/05/07 02:57:34;;;;;;;7.28;5.08;;;;;;;10.03;39.85;100356.27;1754359;81;21006;-74
2022/05/07 03:00:01;;;;;;;9.13;5.28;;;;;;;10.01;39.93;100362.01;1716435;83;21625;-75
2022/05/07 03:02:27;;;;;;;12.10;4.80;;;;;;;9.99;40.22;100359.86;1755011;81;21564;-74
2022/05/07 03:04:54;;;;;;;8.98;5.55;;;;;;;9.97;40.28;100357.72;1754541;81;22051;-75
2022/05/07 03:07:23;;;;;;;10.20;5.50;;;;;;;9.96;40.21;100363.86;1716481;83;21087;-74
2022/05/07 03:09:50;;;;;;;10.53;4.75;;;;;;;9.94;40.38;100355.14;1755104;81;21062;-74
2022/05/07 03:12:17;;;;;;;7.53;4.60;;;;;;;9.94;40.37;100360.40;1754660;81;21070;-74
2022/05/07 03:14:45;;;;;;;11.93;4.50;;;;;;;9.92;40.64;100364.83;1716580;83;21140;-74
2022/05/07 03:17:11;;;;;;;10.90;4.83;;;;;;;9.88;40.49;100360.50;1754843;81;21117;-73
2022/05/07 03:19:38;;;;;;;8.40;4.53;;;;;;;9.86;40.79;100360.98;1754912;81;21073;-74
2022/05/07 03:22:04;;;;;;;7.25;4.20;;;;;;;9.84;40.78;100361.01;1716614;83;20996;-74
2022/05/07 03:24:37;;;;;;;6.17;4.08;;;;;;;9.82;41.10;100359.32;1754874;81;21006;-74
2022/05/07 03:27:03;;;;;;;9.53;3.90;;;;;;;9.79;41.03;100361.54;1754816;81;21672;-74
2022/05/07 03:29:30;;;;;;;6.03;3.87;;;;;;;9.79;40.96;100360.68;1716642;83;21051;-74
2022/05/07 03:31:59;;;;;;;10.58;3.58;;;;;;;9.80;41.23;100360.66;1715937;82;21651;-74
2022/05/07 03:34:25;;;;;;;9.95;4.15;;;;;;;9.78;41.17;100366.36;1716570;83;21548;-74
2022/05/07 03:36:52;;;;;;;9.18;4.87;;;;;;;9.79;41.07;100370.73;1716926;83;21072;-74
2022/05/07 03:39:18;;;;;;;10.63;4.12;;;;;;;9.79;41.07;100368.56;1703984;83;21750;-74
2022/05/07 03:41:45;;;;;;;9.28;4.50;;;;;;;9.81;41.00;100366.77;1716725;83;21658;-74
2022/05/07 03:44:12;;;;;;;9.58;3.85;;;;;;;9.82;40.96;100365.89;1716428;83;21568;-75
2022/05/07 03:46:39;;;;;;;7.47;3.30;;;;;;;9.85;41.16;100364.49;1716479;83;21548;-77
2022/05/07 03:49:06;;;;;;;13.38;4.10;;;;;;;9.88;40.99;100365.76;1717037;83;20978;-75
2022/05/07 03:53:29;;;;;;;8.38;3.40;;;;;;;9.92;41.07;100367.45;1723336;83;21587;-76
2022/05/07 03:54:03;;;;;;;7.25;3.65;;;;;;;9.94;41.01;100363.03;1724917;83;21547;-75
2022/05/07 03:56:31;;;;;;;5.92;3.37;;;;;;;9.97;40.91;100369.55;1729842;82;21038;-74
2022/05/07 03:58:59;;;;;;;12.95;4.55;;;;;;;10.00;41.22;100368.61;1728100;82;21013;-75
2022/05/07 04:01:39;;;;;;;6.62;3.62;;;;;;;10.02;40.91;100372.95;1729081;82;21098;-76
2022/05/07 04:04:06;;;;;;;11.95;4.37;;;;;;;10.06;41.28;100374.22;1728003;83;21169;-74
2022/05/07 04:06:33;;;;;;;12.70;4.30;;;;;;;10.09;41.44;100372.85;1729854;82;20999;-75
2022/05/07 04:09:00;;;;;;;8.40;4.10;;;;;;;10.12;41.13;100374.08;1728076;83;21134;-74
2022/05/07 04:11:28;;;;;;;8.23;3.72;;;;;;;10.16;41.15;100371.83;1729923;82;21006;-75
2022/05/07 04:13:57;;;;;;;8.43;3.87;;;;;;;10.21;41.01;100368.66;1728184;83;21122;-74
2022/05/07 04:16:25;;;;;;;5.80;3.55;;;;;;;10.27;40.82;100371.61;1729974;82;22283;-75
2022/05/07 04:18:53;;;;;;;12.78;3.62;;;;;;;10.32;41.09;100375.05;1727203;82;20999;-74
2022/05/07 04:21:20;;;;;;;10.43;4.78;;;;;;;10.39;41.05;100377.55;1729890;82;21094;-74
2022/05/07 04:23:48;;;;;;;5.45;3.67;;;;;;;10.45;40.91;100371.73;1707042;82;21094;-74
2022/05/07 04:26:15;;;;;;;12.58;3.92;;;;;;;10.51;40.76;100375.56;1706916;82;21187;-75
2022/05/07 04:28:44;;;;;;;6.95;4.10;;;;;;;10.61;40.76;100377.11;1730085;82;22585;-74
2022/05/07 04:31:15;;;;;;;9.80;3.67;;;;;;;10.69;40.64;100377.81;1732295;82;21109;-75
2022/05/07 04:33:40;;;;;;;6.35;3.95;;;;;;;10.77;40.79;100373.22;1753965;81;21557;-74
2022/05/07 04:36:08;;;;;;;5.22;3.70;;;;;;;10.87;40.32;100377.84;1753794;81;21553;-75
2022/05/07 04:38:36;;;;;;;14.85;4.22;;;;;;;10.97;39.91;100377.20;1754028;81;21097;-75
2022/05/07 04:41:04;;;;;;;6.10;4.20;;;;;;;11.06;40.02;100375.69;1754287;81;21152;-75
2022/05/07 04:43:31;;;;;;;8.55;4.20;;;;;;;11.14;39.90;100372.40;1730723;81;21000;-74
2022/05/07 04:45:58;;;;;;;11.95;4.03;;;;;;;11.22;40.09;100369.59;1754032;81;21083;-75
2022/05/07 04:48:26;;;;;;;12.58;3.95;;;;;;;11.29;39.27;100365.91;1753940;81;21520;-75
2022/05/07 04:50:53;;;;;;;18.55;4.58;;;;;;;11.37;39.45;100363.09;1753742;81;21558;-74
2022/05/07 04:53:24;;;;;;;10.85;3.95;;;;;;;11.47;39.11;100370.33;1752844;81;21149;-74
2022/05/07 04:55:51;;;;;;;7.83;3.83;;;;;;;11.53;38.63;100365.78;1753411;81;21098;-75
2022/05/07 04:58:17;;;;;;;11.40;4.08;;;;;;;11.61;39.00;100366.03;1753429;81;21028;-74
2022/05/07 05:00:45;;;;;;;6.75;4.28;;;;;;;11.68;38.67;100364.95;1728157;81;20996;-75
2022/05/07 05:03:20;;;;;;;7.97;4.10;;;;;;;11.78;38.41;100366.45;1753818;81;21047;-74
2022/05/07 05:05:58;;;;;;;14.50;4.42;;;;;;;11.85;38.16;100370.68;1751556;81;21118;-75
2022/05/07 05:08:27;;;;;;;15.00;4.45;;;;;;;11.93;38.53;100367.00;1723671;81;21071;-75
2022/05/07 05:10:57;;;;;;;7.95;3.37;;;;;;;12.00;38.59;100372.08;1753879;81;21083;-74
2022/05/07 05:13:25;;;;;;;13.10;4.78;;;;;;;12.07;38.44;100370.15;1727960;81;21118;-74
2022/05/07 05:15:52;;;;;;;11.90;4.75;;;;;;;12.13;38.40;100372.59;1753447;81;21004;-74
2022/05/07 05:18:24;;;;;;;12.13;4.30;;;;;;;12.18;38.10;100373.34;1751750;81;21171;-74
2022/05/07 05:20:51;;;;;;;9.85;4.62;;;;;;;12.24;38.19;100373.17;1753801;81;21124;-74
2022/05/07 05:23:23;;;;;;;11.95;4.30;;;;;;;12.30;38.22;100371.27;1753332;81;20980;-74
2022/05/07 05:25:50;;;;;;;11.65;4.75;;;;;;;12.35;38.19;100372.86;1753412;81;21123;-75
2022/05/07 05:28:23;;;;;;;13.90;4.70;;;;;;;12.40;38.49;100368.78;1728667;81;21127;-73
2022/05/07 05:30:52;;;;;;;12.23;4.67;;;;;;;12.46;38.60;100373.90;1759645;81;21144;-74
2022/05/07 05:33:22;;;;;;;8.53;3.95;;;;;;;12.53;38.39;100374.12;1759835;81;21531;-74
2022/05/07 05:35:51;;;;;;;9.30;4.55;;;;;;;12.56;38.19;100373.19;1727866;82;21039;-75
2022/05/07 05:38:18;;;;;;;9.55;5.12;;;;;;;12.59;38.21;100370.00;1728065;83;21055;-76
2022/05/07 05:40:45;;;;;;;11.83;4.90;;;;;;;12.64;38.83;100379.97;1704598;83;21521;-75
2022/05/07 05:43:12;;;;;;;8.70;4.47;;;;;;;12.69;38.43;100377.62;1727864;83;21984;-75
2022/05/07 05:45:40;;;;;;;8.08;4.12;;;;;;;12.74;38.30;100371.32;1729342;83;21042;-75
2022/05/07 05:48:07;;;;;;;11.45;4.42;;;;;;;12.82;38.08;100372.39;1727753;83;20980;-75
2022/05/07 05:50:35;;;;;;;12.37;4.37;;;;;;;12.89;38.11;100377.89;1699166;83;22118;-76
2022/05/07 05:53:02;;;;;;;14.65;4.50;;;;;;;12.96;38.16;100378.13;1735734;82;21060;-75
2022/05/07 05:55:29;;;;;;;11.33;4.60;;;;;;;13.05;38.29;100376.13;1735679;82;21087;-75
2022/05/07 05:57:56;;;;;;;9.58;4.92;;;;;;;13.14;37.96;100385.06;1706442;82;21018;-76
2022/05/07 06:00:23;;;;;;;10.90;4.50;;;;;;;13.24;37.84;100386.97;1735397;82;21010;-76
2022/05/07 06:02:50;;;;;;;12.55;4.05;;;;;;;13.32;37.78;100391.12;1735553;82;21599;-76
2022/05/07 06:05:19;;;;;;;9.50;4.78;;;;;;;13.44;37.63;100390.33;1735001;82;21125;-76
2022/05/07 06:07:48;;;;;;;12.82;5.25;;;;;;;13.52;37.61;100393.13;1735675;82;21129;-76
2022/05/07 06:10:14;;;;;;;14.85;5.45;;;;;;;13.55;37.78;100392.18;1706569;82;21002;-76
2022/05/07 06:12:42;;;;;;;15.05;5.37;;;;;;;13.62;37.14;100391.05;1735801;82;21112;-76
2022/05/07 06:15:11;;;;;;;11.53;5.17;;;;;;;13.69;37.42;100395.21;1706444;82;21109;-75
2022/05/07 06:17:38;;;;;;;12.45;4.60;;;;;;;13.82;37.32;100397.44;1735703;82;21116;-75
2022/05/07 06:20:07;;;;;;;10.78;5.03;;;;;;;13.95;38.52;100393.45;1735679;82;21125;-76
2022/05/07 06:22:37;;;;;;;13.18;5.05;;;;;;;14.10;37.68;100390.73;1735648;82;21564;-76
2022/05/07 06:27:54;;;;;;;13.08;5.45;;;;;;;14.39;37.05;100384.86;1734963;82;21073;-75
2022/05/07 06:30:23;;;;;;;11.95;4.97;;;;;;;14.52;36.78;100387.92;1735466;82;21069;-76
2022/05/07 06:32:54;;;;;;;11.60;5.50;;;;;;;14.60;36.92;100388.55;1735767;82;21548;-75
2022/05/07 06:35:23;;;;;;;12.28;5.03;;;;;;;14.70;36.28;100385.95;1734194;82;21459;-76
2022/05/07 06:38:04;;;;;;;17.73;5.12;;;;;;;14.83;36.31;100387.22;1731174;82;21023;-75
2022/05/07 06:40:30;;;;;;;11.75;4.33;;;;;;;14.96;36.10;100383.64;1732351;82;21113;-76
2022/05/07 06:42:57;;;;;;;11.63;5.05;;;;;;;15.08;36.36;100383.63;1732394;82;21034;-76
2022/05/07 06:45:26;;;;;;;18.25;5.28;;;;;;;15.21;36.12;100380.89;1731420;82;21532;-76
2022/05/07 06:47:52;;;;;;;17.90;4.60;;;;;;;15.34;35.97;100375.08;1703551;82;21094;-76
2022/05/07 06:50:19;;;;;;;11.53;4.87;;;;;;;15.46;35.98;100377.22;1732367;82;21079;-75
2022/05/07 06:52:47;;;;;;;12.13;5.95;;;;;;;15.62;35.07;100377.47;1743484;82;21067;-75
2022/05/07 06:55:17;;;;;;;12.80;5.35;;;;;;;15.72;34.57;100375.30;1743702;82;21035;-75
2022/05/07 06:57:46;;;;;;;12.10;4.72;;;;;;;15.79;35.51;100374.98;1743445;82;21200;-75
2022/05/07 07:00:14;;;;;;;7.40;4.05;;;;;;;15.96;34.67;100380.89;1743663;82;21024;-75
2022/05/07 07:02:40;;;;;;;13.83;5.40;;;;;;;16.10;34.39;100368.81;1744052;82;21011;-75
2022/05/07 07:05:08;;;;;;;8.83;5.10;;;;;;;16.26;34.17;100363.23;1743597;82;21055;-75
2022/05/07 07:07:35;;;;;;;18.12;6.12;;;;;;;16.40;32.87;100367.91;1743598;82;21020;-74
2022/05/07 07:10:02;;;;;;;14.50;4.67;;;;;;;16.41;33.58;100368.77;1743956;82;21902;-75
2022/05/07 07:12:29;;;;;;;9.68;5.15;;;;;;;16.50;32.85;100371.02;1743464;82;21681;-76
2022/05/07 07:14:57;;;;;;;18.40;4.72;;;;;;;16.60;33.48;100375.45;1743716;82;21555;-76
2022/05/07 07:17:25;;;;;;;15.95;5.22;;;;;;;16.73;32.64;100368.64;1743643;82;21060;-75
2022/05/07 07:19:52;;;;;;;9.18;5.72;;;;;;;16.86;32.38;100371.59;1743736;82;21106;-75
2022/05/07 07:22:19;;;;;;;7.03;4.35;;;;;;;16.95;32.53;100367.19;1743352;82;21499;-75
2022/05/07 07:24:45;;;;;;;11.38;5.17;;;;;;;17.05;31.97;100367.14;1743630;82;21139;-75
2022/05/07 07:27:12;;;;;;;9.08;4.58;;;;;;;17.15;32.23;100368.91;1743948;82;21039;-75
2022/05/07 07:29:39;;;;;;;16.75;5.03;;;;;;;17.26;31.48;100376.34;1743474;82;21070;-75
2022/05/07 07:32:07;;;;;;;9.60;4.47;;;;;;;17.34;31.07;100375.50;1748483;80;21562;-75
2022/05/07 07:34:34;;;;;;;14.18;5.37;;;;;;;17.38;30.95;100377.09;1752294;81;21516;-75
2022/05/07 07:37:01;;;;;;;19.02;4.97;;;;;;;17.41;30.45;100378.25;1752621;81;20982;-75
2022/05/07 07:39:28;;;;;;;12.65;5.40;;;;;;;17.41;31.06;100375.59;1752250;81;21049;-76
2022/05/07 07:41:55;;;;;;;10.70;5.10;;;;;;;17.44;31.00;100383.42;1752408;81;21104;-76
2022/05/07 07:44:21;;;;;;;18.55;5.00;;;;;;;17.48;31.13;100372.64;1752714;81;21543;-76
2022/05/07 07:49:33;;;;;;;13.43;4.58;;;;;;;17.66;30.80;100378.84;1752626;81;21524;-75
2022/05/07 07:52:00;;;;;;;16.60;5.03;;;;;;;17.76;31.00;100375.63;1742385;81;21049;-75
2022/05/07 07:54:26;;;;;;;10.95;5.70;;;;;;;17.91;30.66;100375.84;1735556;82;20998;-75
2022/05/07 07:56:56;;;;;;;14.87;5.78;;;;;;;18.02;29.26;100370.80;1735791;82;21081;-75
2022/05/07 07:59:23;;;;;;;24.50;6.65;;;;;;;18.05;28.72;100369.31;1736138;82;21166;-76
2022/05/07 08:01:49;;;;;;;11.03;5.37;;;;;;;18.05;29.76;100371.97;1735773;82;21060;-75
2022/05/07 08:04:16;;;;;;;13.00;5.03;;;;;;;18.14;29.60;100374.62;1735643;82;21579;-75
2022/05/07 08:06:42;;;;;;;10.68;5.17;;;;;;;18.19;29.21;100371.27;1736087;82;21113;-74
2022/05/07 08:11:56;;;;;;;26.70;10.05;;;;;;;18.27;28.82;100365.52;1736253;82;21813;-75
2022/05/07 08:14:23;;;;;;;13.38;4.92;;;;;;;18.31;28.72;100364.44;1735607;82;21050;-75
2022/05/07 08:16:50;;;;;;;15.38;4.70;;;;;;;18.36;28.94;100362.38;1735857;82;21516;-75
2022/05/07 08:19:16;;;;;;;13.48;8.58;;;;;;;18.45;28.41;100362.36;1735989;82;21077;-74
2022/05/07 08:21:43;;;;;;;36.58;20.10;;;;;;;18.50;27.65;100358.48;1735722;82;21358;-75
2022/05/07 08:24:10;;;;;;;60.48;25.30;;;;;;;18.40;27.44;100365.26;1735827;82;21505;-75
2022/05/07 08:26:37;;;;;;;14.35;6.15;;;;;;;18.29;28.17;100360.97;1735776;82;21080;-76
2022/05/07 08:29:03;;;;;;;26.95;11.10;;;;;;;18.32;28.33;100356.33;1735840;82;21032;-75
2022/05/07 08:31:30;;;;;;;7.90;4.78;;;;;;;18.40;28.34;100351.94;1735612;82;21002;-76
2022/05/07 08:33:57;;;;;;;9.70;4.70;;;;;;;18.51;27.96;100353.56;1736080;82;21045;-75
2022/05/07 08:36:23;;;;;;;12.00;4.92;;;;;;;18.62;27.89;100353.44;1735613;82;21615;-76
2022/05/07 08:38:49;;;;;;;9.88;4.12;;;;;;;18.71;27.57;100352.47;1735309;82;21019;-76
2022/05/07 08:41:16;;;;;;;13.88;4.45;;;;;;;18.81;27.51;100347.50;1732200;82;21066;-75
2022/05/07 08:43:43;;;;;;;8.40;4.15;;;;;;;18.93;27.49;100344.65;1679015;82;21054;-75
2022/05/07 08:46:14;;;;;;;8.75;3.98;;;;;;;19.07;27.51;100352.71;1732379;82;21046;-75
2022/05/07 08:48:45;;;;;;;16.20;5.10;;;;;;;19.22;26.34;100350.14;1732395;82;21874;-76
2022/05/07 08:51:17;;;;;;;12.07;4.30;;;;;;;19.29;26.56;100333.67;1733859;82;21099;-75
2022/05/07 08:53:48;;;;;;;42.60;11.28;;;;;;;19.37;26.11;100335.05;1743817;82;21043;-75
2022/05/07 08:56:15;;;;;;;20.02;5.22;;;;;;;19.47;26.32;100332.23;1743901;82;21094;-75
2022/05/07 08:58:51;;;;;;;7.55;3.60;;;;;;;19.53;26.96;100324.32;1743395;82;21051;-76
2022/05/07 09:01:18;;;;;;;8.78;3.92;;;;;;;19.61;26.04;100325.58;1722355;83;21127;-75
2022/05/07 09:03:47;;;;;;;29.65;10.18;;;;;;;19.72;26.10;100335.64;1722778;83;21842;-76
2022/05/07 09:06:25;;;;;;;8.80;3.75;;;;;;;19.80;25.50;100328.52;1723063;82;21078;-76
2022/05/07 09:08:54;;;;;;;10.20;5.87;;;;;;;19.79;24.51;100334.34;1722620;83;21004;-75
2022/05/07 09:11:21;;;;;;;16.57;6.75;;;;;;;19.68;24.80;100334.94;1674273;83;21121;-76
2022/05/07 09:14:04;;;;;;;24.52;9.50;;;;;;;19.73;25.34;100333.82;1722756;83;21541;-75
2022/05/07 09:16:51;;;;;;;14.65;8.45;;;;;;;19.85;25.24;100337.11;1722682;82;21486;-76
2022/05/07 09:19:28;;;;;;;8.25;4.50;;;;;;;19.96;25.31;100330.66;1722659;83;21031;-75
2022/05/07 09:22:09;;;;;;;9.63;3.90;;;;;;;20.13;25.78;100337.64;1723947;83;21124;-74
2022/05/07 09:24:36;;;;;;;12.03;5.40;;;;;;;20.21;24.54;100345.19;1728253;83;21188;-75
2022/05/07 09:27:05;;;;;;;8.45;4.22;;;;;;;20.20;24.15;100330.10;1728409;83;21121;-76
2022/05/07 09:29:33;;;;;;;7.05;4.55;;;;;;;20.22;24.29;100317.50;1728781;83;21006;-76
2022/05/07 09:32:16;;;;;;;6.83;3.47;;;;;;;20.31;24.74;100312.94;1728223;83;21084;-75
2022/05/07 09:37:38;;;;;;;15.80;3.42;;;;;;;20.58;23.04;100314.34;1728556;83;21502;-76
2022/05/07 09:40:11;;;;;;;6.83;3.47;;;;;;;20.67;23.74;100312.91;1728761;83;21116;-75
2022/05/07 09:42:39;;;;;;;14.87;6.30;;;;;;;20.81;22.48;100315.19;1728450;83;21073;-76
2022/05/07 09:45:07;;;;;;;13.58;6.45;;;;;;;20.72;21.96;100306.80;1728760;83;21136;-75
2022/05/07 09:47:34;;;;;;;9.55;4.10;;;;;;;20.55;22.71;100307.84;1728422;83;20990;-76
2022/05/07 09:58:18;;;;;;;10.28;3.33;;;;;;;20.87;23.00;100298.75;1736398;82;21170;-75
2022/05/07 10:01:00;;;;;;;9.90;3.20;;;;;;;21.02;22.36;100297.74;1735814;82;21073;-75
2022/05/07 10:03:47;;;;;;;6.17;2.80;;;;;;;21.17;22.57;100295.02;1736203;82;21047;-75
2022/05/07 10:06:42;;;;;;;4.50;3.30;;;;;;;21.31;22.30;100290.44;1736110;82;21217;-74
2022/05/07 10:09:42;;;;;;;3.85;3.05;;;;;;;21.41;21.99;100293.36;1736053;82;21592;-75
2022/05/07 10:12:10;;;;;;;11.15;4.10;;;;;;;21.48;21.79;100295.17;1736005;82;21058;-74
2022/05/07 10:14:37;;;;;;;6.42;3.52;;;;;;;21.58;21.89;100287.38;1717389;82;20999;-74
2022/05/07 10:17:11;;;;;;;12.13;3.80;;;;;;;21.58;21.62;100279.34;1742069;82;21070;-74
2022/05/07 10:19:43;;;;;;;12.40;4.28;;;;;;;21.60;22.13;100280.09;1736224;82;21880;-75
2022/05/07 10:22:22;;;;;;;19.57;4.17;;;;;;;21.65;21.98;100286.87;1736351;82;21015;-74
2022/05/07 10:24:49;;;;;;;12.18;5.85;;;;;;;21.52;21.96;100266.75;1736077;82;21552;-74
2022/05/07 10:27:22;;;;;;;8.10;4.03;;;;;;;21.31;22.33;100290.93;1735615;82;21067;-74
2022/05/07 10:29:50;;;;;;;12.93;4.90;;;;;;;21.06;21.40;100274.31;1735963;82;21000;-74
2022/05/07 10:32:19;;;;;;;12.07;4.92;;;;;;;20.90;22.15;100270.47;1735668;82;21112;-74
2022/05/07 10:34:56;;;;;;;13.08;4.87;;;;;;;20.85;22.01;100276.11;1735872;82;21106;-74
2022/05/07 10:37:20;;;;;;;10.00;4.58;;;;;;;20.91;22.79;100277.52;1735436;82;20999;-74
2022/05/07 10:39:53;;;;;;;10.45;4.10;;;;;;;21.07;22.26;100273.36;1741890;81;21063;-74
2022/05/07 10:42:22;;;;;;;11.25;3.33;;;;;;;21.23;22.32;100270.51;1736046;82;21094;-75
2022/05/07 10:44:49;;;;;;;8.98;4.22;;;;;;;21.28;21.84;100271.05;1735824;82;21150;-74
2022/05/07 10:47:20;;;;;;;8.55;4.75;;;;;;;21.26;21.89;100270.30;1736073;82;21035;-73
2022/05/07 10:50:10;;;;;;;8.15;4.30;;;;;;;21.27;21.61;100269.36;1750031;81;21102;-74
2022/05/07 10:52:38;;;;;;;9.90;4.47;;;;;;;21.21;21.65;100263.07;1718742;82;21549;-74
2022/05/07 10:55:16;;;;;;;5.45;3.62;;;;;;;21.15;22.99;100263.86;1712344;83;21602;-73
2022/05/07 10:57:45;;;;;;;13.48;3.58;;;;;;;21.04;21.74;100270.89;1743342;82;22770;-75
2022/05/07 11:00:17;;;;;;;8.10;3.50;;;;;;;20.76;22.67;100261.53;1722688;83;21093;-75
2022/05/07 11:02:45;;;;;;;13.50;4.28;;;;;;;20.63;22.36;100265.08;1722709;83;21121;-73
2022/05/07 11:05:12;;;;;;;12.98;4.53;;;;;;;20.35;22.64;100262.33;1722861;83;21077;-75
2022/05/07 11:07:39;;;;;;;16.00;4.30;;;;;;;20.12;23.57;100257.58;1722702;83;21062;-75
2022/05/07 11:10:09;;;;;;;8.20;3.60;;;;;;;20.07;23.94;100260.53;1722706;83;21506;-75
2022/05/07 11:12:36;;;;;;;7.80;3.92;;;;;;;20.24;23.32;100254.16;1698347;83;21039;-76
2022/05/07 11:15:06;;;;;;;7.78;3.90;;;;;;;20.37;22.74;100248.38;1722628;83;21027;-76
2022/05/07 11:17:40;;;;;;;6.55;3.70;;;;;;;20.46;22.68;100248.30;1722370;83;21070;-75
2022/05/07 11:20:06;;;;;;;9.15;3.40;;;;;;;20.56;23.02;100240.52;1722292;83;20975;-75
2022/05/07 11:22:33;;;;;;;8.33;3.67;;;;;;;20.70;23.18;100241.86;1723342;82;21099;-75
2022/05/07 11:25:01;;;;;;;10.05;4.17;;;;;;;20.85;22.38;100237.81;1728236;83;21050;-76
2022/05/07 11:27:32;;;;;;;13.28;4.70;;;;;;;20.75;22.93;100241.08;1728153;83;21564;-75
2022/05/07 11:30:04;;;;;;;8.25;4.33;;;;;;;20.56;22.95;100240.52;1728302;83;21068;-75
2022/05/07 11:32:38;;;;;;;11.55;4.03;;;;;;;20.30;22.93;100232.38;1728197;83;21109;-76
2022/05/07 11:35:06;;;;;;;10.45;3.87;;;;;;;20.03;23.01;100234.98;1729062;83;21805;-76
2022/05/07 11:37:46;;;;;;;11.35;4.67;;;;;;;19.86;23.18;100237.36;1728589;83;21525;-75
2022/05/07 11:40:17;;;;;;;14.13;4.67;;;;;;;19.81;24.36;100238.13;1728698;83;21093;-75
2022/05/07 11:42:46;;;;;;;7.87;4.03;;;;;;;19.84;24.03;100231.27;1726660;83;21611;-74
2022/05/07 11:45:31;;;;;;;13.85;3.90;;;;;;;19.79;23.35;100221.34;1728499;83;21045;-75
2022/05/07 11:48:14;;;;;;;6.95;3.72;;;;;;;19.71;23.49;100219.10;1728514;83;21125;-75
2022/05/07 11:50:55;;;;;;;7.58;3.70;;;;;;;19.67;23.78;100218.44;1728327;83;21045;-75
2022/05/07 11:53:29;;;;;;;9.10;4.20;;;;;;;19.62;23.70;100211.19;1734927;81;21144;-76
2022/05/07 11:56:06;;;;;;;8.10;4.30;;;;;;;19.54;23.62;100206.79;1738865;82;21066;-75
2022/05/07 11:58:44;;;;;;;9.88;3.85;;;;;;;19.43;24.13;100203.91;1738701;82;21011;-75